Time;durP1;ratioP1;P1;durP2;ratioP2;P2;SDS_P1;SDS_P2;PMS_P1;PMS_P2;Temp;Humidity;BMP_temperature;BMP_pressure;BME280_temperature;BME280_humidity;BME280_pressure;Samples;Min_cycle;Max_cycle;Signal;HPM_P1;HPM_P2
2023/07/19 00:00:20;;;;;;;4.63;1.67;;;;;;;;;;5134264;27;20657;-76
2023/07/19 00:02:47;;;;;;;3.30;1.20;;;;;;;;;;5134157;27;20728;-76
2023/07/19 00:05:14;;;;;;;5.47;1.50;;;;;;;;;;5134580;27;20312;-77
2023/07/19 00:07:42;;;;;;;5.60;1.80;;;;;;;;;;5134507;27;20640;-77
2023/07/19 00:10:09;;;;;;;4.53;1.47;;;;;;;;;;5134364;27;20273;-77
2023/07/19 00:12:37;;;;;;;3.53;1.67;;;;;;;;;;5134101;27;20224;-77
2023/07/19 00:15:04;;;;;;;5.67;1.57;;;;;;;;;;5134051;27;20204;-77
2023/07/19 00:17:32;;;;;;;5.23;1.60;;;;;;;;;;5113398;28;20221;-78
2023/07/19 00:20:00;;;;;;;5.83;1.77;;;;;;;;;;5113544;28;20229;-76
2023/07/19 00:22:27;;;;;;;4.37;1.77;;;;;;;;;;5113320;28;20678;-77
2023/07/19 00:24:54;;;;;;;4.13;1.77;;;;;;;;;;5113277;28;20204;-77
2023/07/19 00:27:21;;;;;;;3.57;1.60;;;;;;;;;;5113380;28;20288;-77
2023/07/19 00:29:48;;;;;;;3.53;1.40;;;;;;;;;;5113735;28;20217;-77
2023/07/19 00:32:16;;;;;;;6.90;1.37;;;;;;;;;;5113030;28;20340;-77
2023/07/19 00:34:44;;;;;;;3.47;1.50;;;;;;;;;;5113322;28;20202;-77
2023/07/19 00:37:11;;;;;;;4.67;1.60;;;;;;;;;;5113236;28;20677;-77
2023/07/19 00:39:39;;;;;;;2.57;1.40;;;;;;;;;;5112957;28;20284;-77
2023/07/19 00:42:06;;;;;;;4.07;1.93;;;;;;;;;;5113355;28;20871;-77
2023/07/19 00:44:34;;;;;;;4.13;1.37;;;;;;;;;;5112987;28;20693;-77
2023/07/19 00:47:02;;;;;;;4.03;1.43;;;;;;;;;;5112707;28;20213;-77
2023/07/19 00:49:30;;;;;;;3.70;1.50;;;;;;;;;;5112618;28;20258;-77
2023/07/19 00:51:58;;;;;;;4.20;1.73;;;;;;;;;;5112663;28;20236;-77
2023/07/19 00:54:26;;;;;;;4.80;1.70;;;;;;;;;;5113123;28;20198;-78
2023/07/19 00:56:53;;;;;;;6.60;1.50;;;;;;;;;;5112820;28;20228;-77
2023/07/19 00:59:21;;;;;;;2.60;1.63;;;;;;;;;;5112669;28;20288;-77
2023/07/19 01:01:48;;;;;;;7.33;1.70;;;;;;;;;;5112613;28;20208;-77
2023/07/19 01:04:16;;;;;;;5.50;1.50;;;;;;;;;;5112689;28;20202;-76
2023/07/19 01:06:43;;;;;;;5.97;1.37;;;;;;;;;;5112422;28;20190;-77
2023/07/19 01:09:12;;;;;;;4.50;1.33;;;;;;;;;;5130705;27;20204;-76
2023/07/19 01:11:39;;;;;;;4.63;1.70;;;;;;;;;;5133771;27;20224;-77
2023/07/19 01:14:07;;;;;;;4.70;1.73;;;;;;;;;;5132809;27;20665;-76
2023/07/19 01:16:35;;;;;;;5.90;1.60;;;;;;;;;;5132803;27;20201;-77
2023/07/19 01:19:02;;;;;;;4.70;1.57;;;;;;;;;;5125114;27;20198;-77
2023/07/19 01:21:29;;;;;;;5.93;1.83;;;;;;;;;;5121307;27;20304;-77
2023/07/19 01:23:58;;;;;;;6.50;1.80;;;;;;;;;;5112580;28;20295;-77
2023/07/19 01:26:25;;;;;;;5.23;1.83;;;;;;;;;;5112223;28;20285;-77
2023/07/19 01:28:52;;;;;;;3.20;1.50;;;;;;;;;;5112461;28;20308;-77
2023/07/19 01:31:19;;;;;;;5.80;1.80;;;;;;;;;;5111932;28;20289;-77
2023/07/19 01:33:46;;;;;;;4.87;1.60;;;;;;;;;;5111956;28;20268;-77
2023/07/19 01:36:14;;;;;;;7.53;1.97;;;;;;;;;;5112141;28;20289;-77
2023/07/19 01:38:42;;;;;;;5.87;1.67;;;;;;;;;;5112161;28;20198;-77
2023/07/19 01:41:10;;;;;;;6.20;2.13;;;;;;;;;;5112397;28;20193;-76
2023/07/19 01:43:37;;;;;;;4.83;2.10;;;;;;;;;;5112024;28;20289;-77
2023/07/19 01:46:05;;;;;;;6.10;1.97;;;;;;;;;;5111832;28;20284;-76
2023/07/19 01:48:32;;;;;;;8.27;2.27;;;;;;;;;;5111879;28;20190;-77
2023/07/19 01:50:59;;;;;;;7.07;1.57;;;;;;;;;;5111510;28;20697;-77
2023/07/19 01:53:26;;;;;;;3.23;1.83;;;;;;;;;;5111827;28;20308;-76
2023/07/19 01:55:54;;;;;;;3.67;1.80;;;;;;;;;;5112062;28;20281;-78
2023/07/19 01:58:22;;;;;;;7.70;1.70;;;;;;;;;;5111592;28;20204;-76
2023/07/19 02:00:49;;;;;;;7.23;2.10;;;;;;;;;;5111974;28;20242;-76
2023/07/19 02:03:17;;;;;;;6.40;2.37;;;;;;;;;;5111717;28;20535;-76
2023/07/19 02:05:44;;;;;;;7.20;1.90;;;;;;;;;;5111961;28;20281;-77
2023/07/19 02:08:11;;;;;;;8.07;2.20;;;;;;;;;;5111946;28;20229;-77
2023/07/19 02:10:38;;;;;;;7.20;2.00;;;;;;;;;;5111977;28;20614;-77
2023/07/19 02:13:05;;;;;;;6.33;1.80;;;;;;;;;;5111625;28;20249;-77
2023/07/19 02:15:34;;;;;;;8.10;2.07;;;;;;;;;;5121288;27;20679;-77
2023/07/19 02:18:01;;;;;;;5.37;2.00;;;;;;;;;;5138968;27;20193;-76
2023/07/19 02:20:28;;;;;;;7.37;2.10;;;;;;;;;;5139000;27;20300;-76
2023/07/19 02:22:55;;;;;;;6.27;2.40;;;;;;;;;;5139327;27;20657;-76
2023/07/19 02:25:22;;;;;;;5.73;2.43;;;;;;;;;;5139046;27;20197;-77
2023/07/19 02:27:50;;;;;;;6.00;2.20;;;;;;;;;;5138641;27;20642;-77
2023/07/19 02:30:17;;;;;;;8.23;2.90;;;;;;;;;;5139042;27;20193;-77
2023/07/19 02:32:45;;;;;;;6.20;3.17;;;;;;;;;;5138706;27;20256;-76
2023/07/19 02:35:13;;;;;;;7.13;3.23;;;;;;;;;;5138873;27;20623;-76
2023/07/19 02:37:40;;;;;;;8.80;3.50;;;;;;;;;;5139137;27;20224;-77
2023/07/19 02:40:08;;;;;;;8.77;4.03;;;;;;;;;;5138776;27;20276;-76
2023/07/19 02:42:35;;;;;;;8.27;4.40;;;;;;;;;;5138430;27;20232;-78
2023/07/19 02:45:02;;;;;;;6.80;4.27;;;;;;;;;;5138735;27;20287;-76
2023/07/19 02:47:29;;;;;;;9.80;4.60;;;;;;;;;;5138722;27;20197;-76
2023/07/19 02:49:58;;;;;;;6.97;4.60;;;;;;;;;;5138833;27;20193;-77
2023/07/19 02:52:25;;;;;;;6.80;4.47;;;;;;;;;;5138500;27;20735;-76
2023/07/19 02:54:52;;;;;;;9.27;5.07;;;;;;;;;;5138909;27;20207;-77
2023/07/19 02:57:19;;;;;;;10.23;4.13;;;;;;;;;;5138294;27;20694;-76
2023/07/19 02:59:48;;;;;;;6.73;3.50;;;;;;;;;;5139015;27;20234;-77
2023/07/19 03:02:15;;;;;;;6.57;3.17;;;;;;;;;;5138347;27;20288;-76
2023/07/19 03:04:42;;;;;;;7.77;2.83;;;;;;;;;;5138687;27;20224;-76
2023/07/19 03:07:10;;;;;;;5.07;2.67;;;;;;;;;;5138848;27;20220;-77
2023/07/19 03:09:38;;;;;;;7.53;2.83;;;;;;;;;;5138500;27;20327;-76
2023/07/19 03:12:05;;;;;;;6.73;2.50;;;;;;;;;;5137920;27;20197;-76
2023/07/19 03:14:32;;;;;;;4.87;2.20;;;;;;;;;;5138472;27;20193;-77
2023/07/19 03:17:00;;;;;;;8.80;2.47;;;;;;;;;;5138898;27;20235;-77
2023/07/19 03:19:27;;;;;;;4.87;2.40;;;;;;;;;;5138218;27;20205;-77
2023/07/19 03:21:54;;;;;;;4.70;2.37;;;;;;;;;;5138717;27;20201;-76
2023/07/19 03:24:22;;;;;;;3.60;2.03;;;;;;;;;;5138655;27;20276;-77
2023/07/19 03:26:50;;;;;;;4.77;2.10;;;;;;;;;;5134064;27;20193;-77
2023/07/19 03:29:17;;;;;;;8.03;2.50;;;;;;;;;;5135328;27;20383;-76
2023/07/19 03:31:44;;;;;;;6.50;2.20;;;;;;;;;;5135002;27;20280;-77
2023/07/19 03:34:11;;;;;;;5.07;2.40;;;;;;;;;;5134888;27;20319;-77
2023/07/19 03:36:38;;;;;;;5.37;2.40;;;;;;;;;;5135040;27;20284;-76
2023/07/19 03:39:05;;;;;;;4.93;2.10;;;;;;;;;;5135196;27;20228;-77
2023/07/19 03:41:35;;;;;;;5.47;2.30;;;;;;;;;;5134548;27;20201;-76
2023/07/19 03:44:02;;;;;;;5.33;2.53;;;;;;;;;;5134819;27;20193;-77
2023/07/19 03:46:29;;;;;;;5.63;2.03;;;;;;;;;;5134634;27;20303;-77
2023/07/19 03:48:56;;;;;;;3.97;2.20;;;;;;;;;;5134725;27;20213;-76
2023/07/19 03:51:24;;;;;;;4.23;2.00;;;;;;;;;;5134653;27;20303;-78
2023/07/19 03:53:52;;;;;;;5.67;2.20;;;;;;;;;;5134868;27;20264;-76
2023/07/19 03:56:19;;;;;;;5.37;2.03;;;;;;;;;;5133988;27;20288;-76
2023/07/19 03:58:49;;;;;;;3.63;2.00;;;;;;;;;;5134249;27;20284;-76
2023/07/19 04:01:17;;;;;;;6.03;2.00;;;;;;;;;;5134496;27;20237;-76
2023/07/19 04:03:44;;;;;;;4.47;2.20;;;;;;;;;;5134973;27;20417;-77
2023/07/19 04:06:11;;;;;;;5.37;2.30;;;;;;;;;;5134524;27;20200;-77
2023/07/19 04:08:38;;;;;;;2.90;2.00;;;;;;;;;;5133845;27;20304;-77
2023/07/19 04:11:05;;;;;;;4.73;2.10;;;;;;;;;;5134359;27;20643;-77
2023/07/19 04:13:33;;;;;;;5.13;2.13;;;;;;;;;;5134234;27;20605;-78
2023/07/19 04:16:01;;;;;;;4.70;2.37;;;;;;;;;;5134031;27;20672;-77
2023/07/19 04:18:28;;;;;;;4.27;2.13;;;;;;;;;;5134364;27;20197;-77
2023/07/19 04:20:57;;;;;;;5.10;2.03;;;;;;;;;;5134057;27;20229;-77
2023/07/19 04:23:24;;;;;;;6.27;2.30;;;;;;;;;;5134178;27;20281;-76
2023/07/19 04:25:51;;;;;;;3.80;2.10;;;;;;;;;;5133817;27;20200;-77
2023/07/19 04:28:19;;;;;;;4.97;2.27;;;;;;;;;;5133976;27;20284;-76
2023/07/19 04:30:47;;;;;;;4.03;2.13;;;;;;;;;;5134014;27;20201;-77
2023/07/19 04:33:15;;;;;;;6.77;2.50;;;;;;;;;;5133834;27;20304;-77
2023/07/19 04:35:43;;;;;;;6.37;2.50;;;;;;;;;;5133836;27;20197;-77
2023/07/19 04:38:10;;;;;;;4.87;2.57;;;;;;;;;;5132969;27;20284;-77
2023/07/19 04:40:37;;;;;;;6.43;2.70;;;;;;;;;;5133798;27;20217;-78
2023/07/19 04:43:05;;;;;;;7.03;2.70;;;;;;;;;;5134291;27;20614;-76
2023/07/19 04:45:33;;;;;;;3.93;2.23;;;;;;;;;;5133514;27;20736;-77
2023/07/19 04:48:00;;;;;;;8.17;2.60;;;;;;;;;;5134102;27;20242;-77
2023/07/19 04:50:29;;;;;;;4.97;2.60;;;;;;;;;;5133727;27;20197;-77
2023/07/19 04:52:56;;;;;;;4.77;2.67;;;;;;;;;;5133229;27;20356;-77
2023/07/19 04:55:23;;;;;;;5.07;3.07;;;;;;;;;;5133612;27;20292;-78
2023/07/19 04:57:50;;;;;;;5.03;2.60;;;;;;;;;;5133509;27;20639;-77
2023/07/19 05:00:18;;;;;;;6.47;2.70;;;;;;;;;;5133376;27;20637;-77
2023/07/19 05:02:45;;;;;;;5.13;2.63;;;;;;;;;;5133346;27;20276;-77
2023/07/19 05:05:14;;;;;;;5.47;2.70;;;;;;;;;;5133378;27;20193;-77
2023/07/19 05:07:42;;;;;;;5.50;2.50;;;;;;;;;;5133029;27;20708;-77
2023/07/19 05:10:10;;;;;;;5.67;2.27;;;;;;;;;;5132846;27;20272;-76
2023/07/19 05:12:37;;;;;;;3.80;2.40;;;;;;;;;;5133356;27;20213;-76
2023/07/19 05:15:05;;;;;;;8.13;2.27;;;;;;;;;;5133232;27;20579;-76
2023/07/19 05:17:32;;;;;;;5.93;2.23;;;;;;;;;;5112503;28;20685;-77
2023/07/19 05:19:59;;;;;;;3.50;2.20;;;;;;;;;;5112308;28;20288;-77
2023/07/19 05:22:28;;;;;;;3.77;2.00;;;;;;;;;;5112187;28;20198;-76
2023/07/19 05:24:57;;;;;;;7.20;2.37;;;;;;;;;;5112562;28;20209;-76
2023/07/19 05:27:24;;;;;;;6.00;2.30;;;;;;;;;;5112622;28;20288;-76
2023/07/19 05:29:51;;;;;;;5.20;2.40;;;;;;;;;;5112594;28;20278;-76
2023/07/19 05:32:18;;;;;;;3.27;2.20;;;;;;;;;;5112123;28;20253;-76
2023/07/19 05:34:46;;;;;;;5.00;1.93;;;;;;;;;;5112284;28;20324;-76
2023/07/19 05:37:13;;;;;;;4.43;2.50;;;;;;;;;;5112015;28;20233;-77
2023/07/19 05:39:40;;;;;;;4.90;2.10;;;;;;;;;;5112035;28;20288;-75
2023/07/19 05:42:09;;;;;;;5.90;2.10;;;;;;;;;;5128745;27;20201;-76
2023/07/19 05:44:36;;;;;;;4.63;2.20;;;;;;;;;;5140910;27;20236;-73
2023/07/19 05:47:03;;;;;;;5.33;2.23;;;;;;;;;;5147718;27;20224;-75
2023/07/19 05:49:30;;;;;;;4.10;1.97;;;;;;;;;;5136873;27;20291;-75
2023/07/19 05:51:57;;;;;;;6.33;2.40;;;;;;;;;;5152309;27;20716;-76
2023/07/19 05:54:25;;;;;;;5.90;2.40;;;;;;;;;;5152932;27;20307;-76
2023/07/19 05:56:52;;;;;;;4.93;2.50;;;;;;;;;;5152834;27;20345;-76
2023/07/19 05:59:20;;;;;;;6.23;2.20;;;;;;;;;;5142087;27;20272;-75
2023/07/19 06:01:47;;;;;;;4.60;2.17;;;;;;;;;;5130976;27;20653;-78
2023/07/19 06:04:15;;;;;;;5.33;2.40;;;;;;;;;;5131946;27;20644;-77
2023/07/19 06:06:42;;;;;;;4.50;2.03;;;;;;;;;;5131413;27;20257;-77
2023/07/19 06:09:10;;;;;;;5.37;2.37;;;;;;;;;;5130858;27;20609;-77
2023/07/19 06:11:37;;;;;;;6.47;2.20;;;;;;;;;;5131446;27;20207;-77
2023/07/19 06:14:04;;;;;;;5.87;2.57;;;;;;;;;;5132352;28;20731;-76
2023/07/19 06:16:33;;;;;;;4.77;2.30;;;;;;;;;;5143947;27;20200;-77
2023/07/19 06:19:00;;;;;;;4.37;2.43;;;;;;;;;;5152838;27;20587;-76
2023/07/19 06:21:29;;;;;;;5.77;2.57;;;;;;;;;;5152674;27;20295;-77
2023/07/19 06:23:57;;;;;;;5.77;2.67;;;;;;;;;;5141480;27;20228;-77
2023/07/19 06:26:24;;;;;;;6.37;2.10;;;;;;;;;;5131665;28;20253;-77
2023/07/19 06:28:51;;;;;;;6.50;2.53;;;;;;;;;;5132053;28;20280;-77
2023/07/19 06:31:18;;;;;;;7.37;2.07;;;;;;;;;;5132150;28;20211;-76
2023/07/19 06:33:47;;;;;;;5.93;1.92;;;;;;;;;;5132208;28;20308;-76
2023/07/19 06:36:14;;;;;;;4.15;2.50;;;;;;;;;;5131589;28;20300;-77
2023/07/19 06:38:41;;;;;;;4.50;2.28;;;;;;;;;;5132273;28;20229;-75
2023/07/19 06:41:08;;;;;;;6.18;2.25;;;;;;;;;;5131965;28;20288;-77
2023/07/19 06:43:36;;;;;;;6.50;2.33;;;;;;;;;;5131941;28;20197;-76
2023/07/19 06:46:03;;;;;;;5.68;2.13;;;;;;;;;;5131976;28;20228;-78
2023/07/19 06:48:30;;;;;;;6.05;2.50;;;;;;;;;;5131990;28;20239;-75
2023/07/19 06:50:58;;;;;;;3.15;2.10;;;;;;;;;;5146083;27;20224;-76
2023/07/19 06:53:26;;;;;;;3.85;2.20;;;;;;;;;;5152358;27;20288;-76
2023/07/19 06:55:55;;;;;;;5.10;2.33;;;;;;;;;;5153137;27;20224;-76
2023/07/19 06:58:23;;;;;;;5.75;2.67;;;;;;;;;;5149611;27;20196;-75
2023/07/19 07:00:50;;;;;;;3.85;2.28;;;;;;;;;;5134054;27;20272;-76
2023/07/19 07:03:17;;;;;;;7.07;2.35;;;;;;;;;;5135662;27;20200;-76
2023/07/19 07:05:46;;;;;;;5.30;2.40;;;;;;;;;;5136128;27;20228;-76
2023/07/19 07:08:15;;;;;;;5.30;2.20;;;;;;;;;;5135589;27;20193;-75
2023/07/19 07:10:43;;;;;;;4.28;2.00;;;;;;;;;;5135595;27;20193;-78
2023/07/19 07:13:10;;;;;;;6.22;2.25;;;;;;;;;;5136112;27;20212;-76
2023/07/19 07:15:38;;;;;;;3.88;2.28;;;;;;;;;;5135607;27;20225;-76
2023/07/19 07:18:05;;;;;;;5.80;2.20;;;;;;;;;;5135257;27;20250;-78
2023/07/19 07:20:35;;;;;;;3.83;2.22;;;;;;;;;;5135687;27;20284;-76
2023/07/19 07:23:02;;;;;;;4.10;2.28;;;;;;;;;;5135450;27;20224;-77
2023/07/19 07:25:31;;;;;;;6.20;2.53;;;;;;;;;;5135377;27;20262;-77
2023/07/19 07:27:59;;;;;;;3.70;2.10;;;;;;;;;;5135313;27;20647;-77
2023/07/19 07:30:26;;;;;;;4.70;2.30;;;;;;;;;;5135739;27;20601;-77
2023/07/19 07:32:53;;;;;;;4.38;2.00;;;;;;;;;;5134411;27;20692;-76
2023/07/19 07:35:20;;;;;;;7.55;2.22;;;;;;;;;;5135315;27;20319;-76
2023/07/19 07:37:48;;;;;;;6.50;2.75;;;;;;;;;;5135316;27;20225;-77
2023/07/19 07:40:15;;;;;;;3.55;2.28;;;;;;;;;;5134893;27;20200;-77
2023/07/19 07:42:43;;;;;;;4.97;2.20;;;;;;;;;;5135119;27;20277;-77
2023/07/19 07:45:11;;;;;;;5.15;2.20;;;;;;;;;;5134974;27;20280;-77
2023/07/19 07:47:38;;;;;;;4.60;2.40;;;;;;;;;;5134624;27;20304;-77
2023/07/19 07:50:08;;;;;;;5.28;2.38;;;;;;;;;;5134429;27;20626;-77
2023/07/19 07:52:35;;;;;;;5.18;2.22;;;;;;;;;;5134796;27;20586;-76
2023/07/19 07:55:04;;;;;;;3.70;1.90;;;;;;;;;;5134871;27;20225;-76
2023/07/19 07:57:33;;;;;;;2.90;1.77;;;;;;;;;;5134292;27;20189;-77
2023/07/19 08:00:02;;;;;;;3.80;1.75;;;;;;;;;;5134711;27;20254;-77
2023/07/19 08:02:29;;;;;;;5.28;2.58;;;;;;;;;;5134506;27;20189;-76
2023/07/19 08:04:56;;;;;;;4.07;2.58;;;;;;;;;;5135027;27;20193;-76
2023/07/19 08:07:25;;;;;;;5.10;2.95;;;;;;;;;;5134524;27;20225;-77
2023/07/19 08:09:53;;;;;;;3.90;2.50;;;;;;;;;;5134582;27;20241;-77
2023/07/19 08:12:21;;;;;;;4.50;1.90;;;;;;;;;;5134098;27;20204;-76
2023/07/19 08:14:48;;;;;;;4.45;2.05;;;;;;;;;;5134210;27;20324;-77
2023/07/19 08:17:17;;;;;;;6.40;2.20;;;;;;;;;;5133866;27;20654;-77
2023/07/19 08:19:44;;;;;;;6.00;2.75;;;;;;;;;;5134455;27;20309;-77
2023/07/19 08:22:25;;;;;;;5.50;2.78;;;;;;;;;;5134377;27;20288;-76
2023/07/19 08:24:52;;;;;;;3.70;1.75;;;;;;;;;;5134064;27;20650;-78
2023/07/19 08:27:19;;;;;;;2.40;1.70;;;;;;;;;;5134077;27;20193;-77
2023/07/19 08:29:46;;;;;;;2.78;1.65;;;;;;;;;;5134423;27;20283;-77
2023/07/19 08:32:13;;;;;;;4.45;1.55;;;;;;;;;;5133512;27;20216;-76
2023/07/19 08:34:42;;;;;;;3.67;1.70;;;;;;;;;;5133709;27;20591;-78
2023/07/19 08:37:09;;;;;;;2.63;1.48;;;;;;;;;;5133861;27;20287;-78
2023/07/19 08:39:36;;;;;;;2.95;1.50;;;;;;;;;;5133969;27;20873;-76
2023/07/19 08:42:04;;;;;;;2.75;1.80;;;;;;;;;;5133616;27;20292;-78
2023/07/19 08:44:31;;;;;;;5.15;1.70;;;;;;;;;;5133685;27;20718;-78
2023/07/19 08:46:59;;;;;;;2.67;1.60;;;;;;;;;;5133270;27;20758;-78
2023/07/19 08:49:26;;;;;;;2.53;1.50;;;;;;;;;;5133344;27;20666;-77
2023/07/19 08:51:56;;;;;;;3.97;1.77;;;;;;;;;;5133764;27;20320;-77
2023/07/19 08:54:23;;;;;;;2.25;1.50;;;;;;;;;;5132849;27;20723;-77
2023/07/19 08:56:50;;;;;;;1.90;1.60;;;;;;;;;;5130912;27;20221;-76
2023/07/19 08:59:17;;;;;;;5.80;1.95;;;;;;;;;;5133601;27;20288;-78
2023/07/19 09:01:45;;;;;;;2.92;2.08;;;;;;;;;;5133368;27;20586;-76
2023/07/19 09:04:12;;;;;;;4.57;1.50;;;;;;;;;;5133295;27;20669;-78
2023/07/19 09:06:41;;;;;;;2.65;1.60;;;;;;;;;;5133120;27;20287;-78
2023/07/19 09:09:12;;;;;;;2.85;1.65;;;;;;;;;;5132966;27;20497;-78
2023/07/19 09:11:43;;;;;;;2.78;1.48;;;;;;;;;;5132258;27;20204;-78
2023/07/19 09:14:10;;;;;;;2.78;1.50;;;;;;;;;;5132612;27;20292;-78
2023/07/19 09:16:37;;;;;;;2.08;1.40;;;;;;;;;;5133321;27;20288;-76
2023/07/19 09:19:04;;;;;;;5.30;1.98;;;;;;;;;;5131416;27;20197;-77
2023/07/19 09:21:33;;;;;;;3.42;1.85;;;;;;;;;;5131997;27;20205;-77
2023/07/19 09:24:04;;;;;;;4.63;1.70;;;;;;;;;;5130845;27;20254;-76
2023/07/19 09:26:44;;;;;;;4.72;1.55;;;;;;;;;;5119067;27;20208;-78
2023/07/19 09:29:12;;;;;;;2.22;1.73;;;;;;;;;;5128628;27;20559;-78
2023/07/19 09:31:53;;;;;;;3.80;1.63;;;;;;;;;;5131913;27;20197;-77
2023/07/19 09:34:21;;;;;;;3.33;1.70;;;;;;;;;;5132483;27;20220;-77
2023/07/19 09:36:48;;;;;;;4.50;1.85;;;;;;;;;;5130934;27;20193;-77
2023/07/19 09:39:15;;;;;;;4.57;1.83;;;;;;;;;;5131676;27;20280;-76
2023/07/19 09:41:45;;;;;;;3.00;1.48;;;;;;;;;;5127606;27;20280;-76
2023/07/19 09:44:15;;;;;;;2.15;1.30;;;;;;;;;;5115029;27;20297;-76
2023/07/19 09:46:43;;;;;;;1.70;1.60;;;;;;;;;;5130254;27;20221;-77
2023/07/19 09:49:10;;;;;;;3.28;1.20;;;;;;;;;;5140267;27;20193;-76
2023/07/19 09:51:40;;;;;;;3.42;1.45;;;;;;;;;;5153057;27;20315;-77
2023/07/19 09:54:08;;;;;;;2.90;1.25;;;;;;;;;;5134449;27;20193;-77
2023/07/19 09:56:35;;;;;;;3.58;1.23;;;;;;;;;;5133249;27;20288;-76
2023/07/19 09:59:06;;;;;;;1.50;1.00;;;;;;;;;;5132092;27;20232;-76
2023/07/19 10:01:34;;;;;;;1.55;1.33;;;;;;;;;;5132640;27;20253;-76
2023/07/19 10:04:01;;;;;;;1.48;0.95;;;;;;;;;;5132025;27;20730;-78
2023/07/19 10:06:30;;;;;;;2.28;1.35;;;;;;;;;;5133005;27;20304;-76
2023/07/19 10:09:12;;;;;;;1.58;1.48;;;;;;;;;;5132419;27;20213;-78
2023/07/19 10:11:40;;;;;;;1.88;1.20;;;;;;;;;;5131585;27;20201;-78
2023/07/19 10:14:08;;;;;;;2.72;1.27;;;;;;;;;;5132165;28;20257;-76
2023/07/19 10:16:36;;;;;;;2.20;1.10;;;;;;;;;;5131576;28;20229;-77
2023/07/19 10:19:11;;;;;;;2.45;1.40;;;;;;;;;;5132093;27;20249;-76
2023/07/19 10:21:38;;;;;;;1.88;1.20;;;;;;;;;;5132393;28;20193;-77
2023/07/19 10:24:07;;;;;;;2.17;1.30;;;;;;;;;;5132906;27;20205;-77
2023/07/19 10:26:38;;;;;;;2.13;1.30;;;;;;;;;;5131685;27;20231;-76
2023/07/19 10:29:05;;;;;;;1.65;1.00;;;;;;;;;;5132059;28;20196;-77
2023/07/19 10:31:34;;;;;;;2.65;1.30;;;;;;;;;;5132062;27;20228;-74
2023/07/19 10:34:04;;;;;;;2.63;1.10;;;;;;;;;;5133781;27;20261;-78
2023/07/19 10:36:31;;;;;;;1.88;1.23;;;;;;;;;;5135234;27;20225;-77
2023/07/19 10:38:59;;;;;;;1.27;0.93;;;;;;;;;;5155624;27;20542;-78
2023/07/19 10:41:26;;;;;;;1.90;1.13;;;;;;;;;;5137515;27;20193;-78
2023/07/19 10:43:53;;;;;;;1.70;1.10;;;;;;;;;;5136057;27;20613;-77
2023/07/19 10:46:21;;;;;;;2.70;1.40;;;;;;;;;;5136419;27;20220;-77
2023/07/19 10:48:51;;;;;;;3.97;1.30;;;;;;;;;;5135512;27;20193;-78
2023/07/19 10:51:20;;;;;;;2.13;1.42;;;;;;;;;;5133300;27;20236;-78
2023/07/19 10:53:47;;;;;;;2.50;1.50;;;;;;;;;;5135761;27;20557;-78
2023/07/19 10:56:18;;;;;;;2.13;1.30;;;;;;;;;;5134429;27;20251;-77
2023/07/19 10:58:45;;;;;;;2.45;1.50;;;;;;;;;;5133922;27;20196;-78
2023/07/19 11:01:13;;;;;;;2.97;1.60;;;;;;;;;;5135055;27;20197;-79
2023/07/19 11:03:42;;;;;;;2.45;1.23;;;;;;;;;;5133648;27;20200;-77
2023/07/19 11:06:10;;;;;;;3.10;1.42;;;;;;;;;;5135765;27;20207;-76
2023/07/19 11:08:38;;;;;;;2.90;1.25;;;;;;;;;;5118193;27;20296;-78
2023/07/19 11:11:05;;;;;;;1.95;1.15;;;;;;;;;;5115125;28;20722;-78
2023/07/19 11:13:33;;;;;;;3.35;1.40;;;;;;;;;;5114741;27;20696;-78
2023/07/19 11:16:00;;;;;;;4.18;1.45;;;;;;;;;;5123579;27;20221;-78
2023/07/19 11:18:28;;;;;;;4.28;1.50;;;;;;;;;;5134844;27;20201;-77
2023/07/19 11:20:57;;;;;;;5.72;1.42;;;;;;;;;;5139013;27;20224;-79
2023/07/19 11:23:26;;;;;;;6.25;1.50;;;;;;;;;;5142303;27;20283;-77
2023/07/19 11:25:53;;;;;;;2.75;1.35;;;;;;;;;;5155577;27;20626;-77
2023/07/19 11:28:35;;;;;;;2.60;1.15;;;;;;;;;;5156024;27;20672;-76
2023/07/19 11:31:03;;;;;;;2.70;1.20;;;;;;;;;;5151528;27;20291;-79
2023/07/19 11:33:31;;;;;;;2.03;1.42;;;;;;;;;;5153311;27;20729;-78
2023/07/19 11:35:58;;;;;;;3.05;1.20;;;;;;;;;;5134803;27;20315;-78
2023/07/19 11:38:26;;;;;;;2.38;1.10;;;;;;;;;;5146932;27;20283;-78
2023/07/19 11:40:54;;;;;;;2.40;1.40;;;;;;;;;;5155467;27;20268;-78
2023/07/19 11:43:25;;;;;;;1.83;1.15;;;;;;;;;;5156086;27;20249;-79
2023/07/19 11:45:52;;;;;;;1.35;1.10;;;;;;;;;;5126717;27;20204;-79
2023/07/19 11:48:21;;;;;;;1.67;1.38;;;;;;;;;;5135038;27;20227;-80
2023/07/19 11:50:48;;;;;;;1.90;1.15;;;;;;;;;;5142821;27;20292;-78
2023/07/19 11:53:16;;;;;;;1.77;1.20;;;;;;;;;;5142920;27;20200;-78
2023/07/19 11:55:45;;;;;;;2.03;1.50;;;;;;;;;;5146422;27;20233;-77
2023/07/19 11:58:12;;;;;;;2.20;1.30;;;;;;;;;;5134984;27;20199;-78
2023/07/19 12:00:39;;;;;;;1.60;1.17;;;;;;;;;;5127473;27;20284;-79
2023/07/19 12:03:07;;;;;;;4.38;1.40;;;;;;;;;;5127496;27;20738;-79
2023/07/19 12:05:34;;;;;;;2.55;1.30;;;;;;;;;;5133664;27;20665;-80
2023/07/19 12:08:01;;;;;;;2.85;1.40;;;;;;;;;;5144521;27;20291;-79
2023/07/19 12:10:29;;;;;;;3.10;1.50;;;;;;;;;;5134019;27;20246;-79
2023/07/19 12:12:58;;;;;;;3.50;1.50;;;;;;;;;;5134142;27;20197;-78
2023/07/19 12:15:25;;;;;;;3.75;1.60;;;;;;;;;;5133822;27;20665;-79
2023/07/19 12:17:52;;;;;;;2.80;1.90;;;;;;;;;;5134197;27;20228;-80
2023/07/19 12:20:20;;;;;;;2.75;1.42;;;;;;;;;;5132040;27;20205;-79
2023/07/19 12:22:48;;;;;;;2.30;1.30;;;;;;;;;;5124981;27;20711;-79
2023/07/19 12:25:17;;;;;;;2.80;1.27;;;;;;;;;;5132029;27;20208;-79
2023/07/19 12:27:46;;;;;;;2.60;1.60;;;;;;;;;;5134030;27;20193;-79
2023/07/19 12:30:15;;;;;;;2.85;1.50;;;;;;;;;;5133547;27;20189;-78
2023/07/19 12:32:42;;;;;;;2.53;1.10;;;;;;;;;;5126291;27;20711;-79
2023/07/19 12:35:10;;;;;;;6.43;0.95;;;;;;;;;;5127447;27;20636;-79
2023/07/19 12:37:37;;;;;;;1.30;0.82;;;;;;;;;;5133337;27;20288;-79
2023/07/19 12:40:05;;;;;;;1.20;1.10;;;;;;;;;;5149173;27;20290;-79
2023/07/19 12:42:32;;;;;;;1.83;0.95;;;;;;;;;;5141615;27;20224;-79
2023/07/19 12:44:59;;;;;;;1.98;0.90;;;;;;;;;;5130474;27;20289;-79
2023/07/19 12:47:28;;;;;;;2.35;1.20;;;;;;;;;;5133199;27;20316;-79
2023/07/19 12:49:55;;;;;;;1.85;0.90;;;;;;;;;;5133664;27;20209;-78
2023/07/19 12:52:22;;;;;;;1.83;0.90;;;;;;;;;;5132772;27;20321;-78
2023/07/19 12:54:50;;;;;;;0.90;0.80;;;;;;;;;;5133545;27;20225;-78
2023/07/19 12:57:17;;;;;;;0.80;0.80;;;;;;;;;;5133639;27;20324;-80
2023/07/19 12:59:45;;;;;;;1.25;0.80;;;;;;;;;;5132963;27;20220;-80
2023/07/19 13:02:12;;;;;;;2.45;1.00;;;;;;;;;;5133527;27;20557;-79
2023/07/19 13:04:41;;;;;;;1.65;1.02;;;;;;;;;;5133653;27;20292;-79
2023/07/19 13:07:09;;;;;;;1.35;0.88;;;;;;;;;;5132958;27;20658;-80
2023/07/19 13:09:36;;;;;;;1.00;0.82;;;;;;;;;;5133543;27;20562;-79
2023/07/19 13:12:05;;;;;;;1.98;0.93;;;;;;;;;;5133265;27;20200;-79
2023/07/19 13:14:32;;;;;;;1.88;1.00;;;;;;;;;;5133501;27;20212;-79
2023/07/19 13:16:59;;;;;;;2.05;1.02;;;;;;;;;;5132842;27;20273;-79
2023/07/19 13:19:27;;;;;;;3.08;1.02;;;;;;;;;;5132803;27;20224;-78
2023/07/19 13:21:56;;;;;;;3.83;1.20;;;;;;;;;;5132957;27;20258;-79
2023/07/19 13:24:23;;;;;;;2.72;0.98;;;;;;;;;;5132821;27;20193;-79
2023/07/19 13:26:50;;;;;;;1.65;0.90;;;;;;;;;;5132860;27;20279;-79
2023/07/19 13:29:17;;;;;;;1.23;0.90;;;;;;;;;;5132943;27;20193;-79
2023/07/19 13:31:45;;;;;;;1.77;1.17;;;;;;;;;;5133185;27;20678;-79
2023/07/19 13:34:12;;;;;;;2.03;0.80;;;;;;;;;;5132547;27;20737;-79
2023/07/19 13:36:39;;;;;;;2.50;0.90;;;;;;;;;;5132463;27;20316;-79
2023/07/19 13:39:08;;;;;;;1.45;0.95;;;;;;;;;;5133143;27;20280;-79
2023/07/19 13:41:36;;;;;;;2.45;0.80;;;;;;;;;;5132703;27;20193;-79
2023/07/19 13:44:03;;;;;;;1.00;0.80;;;;;;;;;;5132996;27;20615;-79
2023/07/19 13:46:30;;;;;;;3.35;0.90;;;;;;;;;;5132846;27;20224;-79
2023/07/19 13:48:58;;;;;;;3.17;1.35;;;;;;;;;;5132260;27;20193;-79
2023/07/19 13:51:25;;;;;;;1.92;0.90;;;;;;;;;;5130670;27;20307;-79
2023/07/19 13:53:52;;;;;;;1.63;0.90;;;;;;;;;;5131532;27;20200;-78
2023/07/19 13:56:21;;;;;;;1.75;0.80;;;;;;;;;;5132162;27;20269;-79
2023/07/19 13:58:48;;;;;;;2.70;1.00;;;;;;;;;;5129582;27;20276;-79
2023/07/19 14:01:15;;;;;;;1.33;0.90;;;;;;;;;;5131401;27;20265;-79
2023/07/19 14:03:42;;;;;;;4.05;1.48;;;;;;;;;;5130812;27;20276;-80
2023/07/19 14:06:09;;;;;;;5.40;1.33;;;;;;;;;;5131192;27;20339;-79
2023/07/19 14:08:37;;;;;;;2.70;1.25;;;;;;;;;;5130893;27;20569;-78
2023/07/19 14:11:05;;;;;;;3.72;1.20;;;;;;;;;;5130675;27;20253;-79
2023/07/19 14:13:33;;;;;;;4.60;1.10;;;;;;;;;;5131331;27;20231;-78
2023/07/19 14:16:01;;;;;;;3.80;1.08;;;;;;;;;;5131028;28;20264;-80
2023/07/19 14:18:28;;;;;;;2.47;1.00;;;;;;;;;;5128286;28;20193;-79
2023/07/19 14:20:55;;;;;;;0.98;0.82;;;;;;;;;;5130787;27;20304;-79
2023/07/19 14:23:24;;;;;;;1.65;0.82;;;;;;;;;;5130717;27;20280;-79
2023/07/19 14:25:51;;;;;;;1.58;1.05;;;;;;;;;;5130986;28;20193;-78
2023/07/19 14:28:19;;;;;;;1.20;1.00;;;;;;;;;;5131396;28;20189;-79
2023/07/19 14:30:47;;;;;;;2.55;1.05;;;;;;;;;;5131148;28;20232;-78
2023/07/19 14:33:16;;;;;;;1.83;1.02;;;;;;;;;;5130789;28;20279;-79
2023/07/19 14:35:43;;;;;;;1.83;1.00;;;;;;;;;;5130765;28;20197;-79
2023/07/19 14:38:10;;;;;;;1.58;1.10;;;;;;;;;;5128022;27;20284;-79
2023/07/19 14:40:37;;;;;;;1.33;1.10;;;;;;;;;;5130659;27;20272;-79
2023/07/19 14:43:04;;;;;;;2.95;1.00;;;;;;;;;;5130694;28;20275;-78
2023/07/19 14:45:32;;;;;;;1.35;1.00;;;;;;;;;;5130697;28;20261;-78